Acosta, Pennsylvania
Current Conditions -  °F | °C
As of 5:07 AM on Wednesday 22 Oct 2014 (Local Time) from KJST Reporting Station
Overcast Overcast  
Wind Chill: 41°   Ceiling: 400
Heat Index: 46°   Visibility: 7mi
Dew Point: 44°   Wind: 9mph
Humidity: 93%   Direction: 340°NNW
Pressure: 29.99"   Gusts: NA
Location:  40.11°N, 79.07°W
Report Text: KJST 220907Z AUTO 34008KT 7SM OVC004 08/07 A2999 RMK AO2 CIG 003V009 T00780067
Loading
Personal Weather Stations






























Interactive Weather Map
Tropical Storm Tracking
New forecast layout! Learn more

10-Day Weather Forecast

Advertisements
Track Severe Weather on mobile